Time;durP1;ratioP1;P1;durP2;ratioP2;P2;SDS_P1;SDS_P2;PMS_P1;PMS_P2;Temp;Humidity;BMP_temperature;BMP_pressure;BME280_temperature;BME280_humidity;BME280_pressure;Samples;Min_cycle;Max_cycle;Signal;HPM_P1;HPM_P2
2023/08/07 00:00:23;;;;;;;4.93;4.32;;;14.90;99.90;;;;;;5053138;28;20041;-71
2023/08/07 00:02:48;;;;;;;4.38;3.97;;;14.90;99.90;;;;;;5052583;28;20477;-71
2023/08/07 00:05:16;;;;;;;4.95;3.67;;;14.90;99.90;;;;;;5052482;28;20136;-72
2023/08/07 00:07:42;;;;;;;6.60;4.63;;;14.90;99.90;;;;;;5052425;28;20048;-71
2023/08/07 00:10:08;;;;;;;7.32;3.88;;;14.90;99.90;;;;;;5052821;28;20079;-70
2023/08/07 00:12:34;;;;;;;4.88;3.65;;;15.00;99.90;;;;;;5052725;28;20052;-70
2023/08/07 00:15:00;;;;;;;6.93;4.20;;;15.00;99.90;;;;;;5052156;28;20559;-71
2023/08/07 00:17:26;;;;;;;4.60;4.20;;;15.00;99.90;;;;;;5034519;28;20134;-71
2023/08/07 00:19:52;;;;;;;4.63;3.00;;;15.00;99.90;;;;;;5052109;28;20080;-72
2023/08/07 00:22:18;;;;;;;5.90;4.28;;;15.00;99.90;;;;;;5052626;28;20056;-70
2023/08/07 00:24:43;;;;;;;4.65;3.80;;;15.00;99.90;;;;;;5052291;28;20561;-71
2023/08/07 00:27:12;;;;;;;4.38;3.20;;;15.00;99.90;;;;;;5034921;28;20458;-70
2023/08/07 00:29:38;;;;;;;6.38;3.30;;;15.00;99.90;;;;;;5034271;28;20044;-70
2023/08/07 00:32:05;;;;;;;3.72;2.95;;;15.00;99.90;;;;;;5052395;28;20155;-70
2023/08/07 00:34:31;;;;;;;5.30;3.40;;;15.00;99.90;;;;;;5034715;28;20060;-70
2023/08/07 00:36:57;;;;;;;4.75;3.67;;;15.00;99.90;;;;;;5052139;28;20047;-70
2023/08/07 00:39:22;;;;;;;4.15;3.20;;;15.00;99.90;;;;;;5052054;28;20128;-70
2023/08/07 00:41:48;;;;;;;5.72;3.95;;;14.90;99.90;;;;;;5052819;28;20128;-70
2023/08/07 00:44:14;;;;;;;3.55;3.20;;;15.00;99.90;;;;;;5052054;28;20485;-73
2023/08/07 00:46:40;;;;;;;6.18;3.50;;;14.90;99.90;;;;;;5052253;28;20037;-73
2023/08/07 00:49:08;;;;;;;3.83;2.75;;;14.90;99.90;;;;;;5051937;28;20120;-72
2023/08/07 00:51:35;;;;;;;5.40;3.15;;;14.90;99.90;;;;;;5052495;28;20061;-73
2023/08/07 00:54:03;;;;;;;4.50;2.97;;;14.80;99.90;;;;;;5035133;28;20146;-71
2023/08/07 00:56:30;;;;;;;3.97;2.95;;;14.80;99.90;;;;;;5052024;28;20044;-71
2023/08/07 00:58:56;;;;;;;5.65;2.95;;;14.80;99.90;;;;;;5051858;28;20056;-71
2023/08/07 01:01:22;;;;;;;3.55;2.72;;;14.70;99.90;;;;;;5033971;28;20053;-73
2023/08/07 01:03:48;;;;;;;4.40;2.85;;;14.70;99.90;;;;;;5034683;28;20159;-71
2023/08/07 01:06:14;;;;;;;4.07;2.88;;;14.80;99.90;;;;;;5035043;28;20052;-71
2023/08/07 01:08:40;;;;;;;4.55;2.70;;;14.70;99.90;;;;;;5052087;28;20045;-71
2023/08/07 01:11:21;;;;;;;4.60;2.97;;;14.80;99.90;;;;;;5034533;28;20053;-73
2023/08/07 01:14:06;;;;;;;4.45;2.78;;;14.80;99.90;;;;;;5051797;28;20122;-72
2023/08/07 01:16:38;;;;;;;4.05;2.60;;;14.80;99.90;;;;;;5055081;28;20083;-73
2023/08/07 01:19:08;;;;;;;3.72;2.97;;;14.80;99.90;;;;;;5021394;28;20061;-71
2023/08/07 01:21:34;;;;;;;4.97;2.90;;;14.80;99.90;;;;;;5055696;28;20063;-72
2023/08/07 01:23:59;;;;;;;6.03;3.10;;;14.80;99.90;;;;;;5055309;28;20358;-71
2023/08/07 01:26:25;;;;;;;3.95;2.85;;;14.80;99.90;;;;;;5055663;28;20060;-71
2023/08/07 01:29:31;;;;;;;4.15;3.08;;;14.70;99.90;;;;;;5055205;28;20202;-72
2023/08/07 01:32:00;;;;;;;3.63;2.60;;;14.70;99.90;;;;;;4957870;28;20063;-72
2023/08/07 01:34:26;;;;;;;4.43;2.45;;;14.70;99.90;;;;;;5043435;28;20092;-71
2023/08/07 01:36:54;;;;;;;3.65;2.72;;;14.70;99.90;;;;;;5055407;28;20075;-72
2023/08/07 01:39:21;;;;;;;5.07;2.95;;;14.60;99.90;;;;;;5055166;28;20052;-71
2023/08/07 01:41:47;;;;;;;2.42;2.20;;;14.60;99.90;;;;;;5055721;28;20049;-71
2023/08/07 01:44:13;;;;;;;7.22;3.67;;;14.70;99.90;;;;;;5054843;28;20049;-71
2023/08/07 01:46:38;;;;;;;7.20;3.45;;;14.60;99.90;;;;;;5054761;28;20052;-72
2023/08/07 01:49:04;;;;;;;3.28;2.88;;;14.60;99.90;;;;;;5054794;28;20081;-71
2023/08/07 01:51:30;;;;;;;3.80;3.20;;;14.60;99.90;;;;;;5037925;28;20044;-71
2023/08/07 01:53:55;;;;;;;3.60;3.00;;;14.60;99.90;;;;;;5055206;28;20128;-71
2023/08/07 01:56:21;;;;;;;3.88;3.03;;;14.60;99.90;;;;;;5036948;28;20044;-71
2023/08/07 01:58:46;;;;;;;3.10;2.80;;;14.60;99.90;;;;;;5054677;28;20037;-71
2023/08/07 02:01:12;;;;;;;3.92;3.50;;;14.50;99.90;;;;;;5054630;28;20132;-73
2023/08/07 02:03:38;;;;;;;4.40;3.08;;;14.50;99.90;;;;;;5055020;28;20049;-72
2023/08/07 02:06:03;;;;;;;5.07;3.13;;;14.50;99.90;;;;;;5054725;28;20559;-72
2023/08/07 02:08:29;;;;;;;4.38;2.92;;;14.50;99.90;;;;;;5054331;28;20071;-74
2023/08/07 02:10:55;;;;;;;5.20;3.20;;;14.50;99.90;;;;;;5036715;28;20045;-71
2023/08/07 02:13:21;;;;;;;5.70;3.00;;;14.50;99.90;;;;;;5036576;28;20059;-71
2023/08/07 02:15:46;;;;;;;4.65;2.88;;;14.50;99.90;;;;;;5036493;28;20041;-71
2023/08/07 02:18:12;;;;;;;4.65;3.20;;;14.50;99.90;;;;;;5054690;28;20095;-74
2023/08/07 02:20:37;;;;;;;6.35;3.10;;;14.50;99.90;;;;;;5054297;28;20041;-71
2023/08/07 02:23:03;;;;;;;7.35;3.20;;;14.50;99.90;;;;;;5054431;28;20083;-72
2023/08/07 02:25:29;;;;;;;6.75;3.15;;;14.50;99.90;;;;;;5054649;28;20496;-73
2023/08/07 02:27:54;;;;;;;5.95;3.08;;;14.50;99.90;;;;;;5052710;28;20102;-70
2023/08/07 02:30:20;;;;;;;5.88;3.10;;;14.50;99.90;;;;;;5036715;28;20056;-71
2023/08/07 02:32:46;;;;;;;4.80;3.05;;;14.60;99.90;;;;;;5054002;28;20063;-72
2023/08/07 02:35:12;;;;;;;10.52;3.85;;;14.60;99.90;;;;;;5054038;28;20063;-73
2023/08/07 02:37:37;;;;;;;8.48;3.50;;;14.60;99.90;;;;;;5053963;28;20055;-71
2023/08/07 02:40:04;;;;;;;8.70;3.15;;;14.60;99.90;;;;;;5054237;28;20040;-71
2023/08/07 02:42:29;;;;;;;6.60;3.00;;;14.60;99.90;;;;;;5020478;28;20049;-72
2023/08/07 02:44:55;;;;;;;8.05;3.03;;;14.60;99.90;;;;;;5054297;28;20060;-71
2023/08/07 02:47:21;;;;;;;6.85;3.50;;;14.60;99.90;;;;;;5053723;28;20126;-71
2023/08/07 02:49:46;;;;;;;5.63;3.08;;;14.60;99.90;;;;;;5036368;28;20048;-71
2023/08/07 02:52:12;;;;;;;6.75;3.05;;;14.70;99.90;;;;;;5053688;28;20049;-72
2023/08/07 02:54:38;;;;;;;6.38;3.28;;;14.60;99.90;;;;;;5053989;28;20128;-71
2023/08/07 02:57:04;;;;;;;6.53;2.97;;;14.70;99.90;;;;;;5053377;28;20044;-72
2023/08/07 02:59:30;;;;;;;8.13;3.47;;;14.60;99.90;;;;;;5035791;28;20047;-71
2023/08/07 03:01:56;;;;;;;7.95;3.78;;;14.70;99.90;;;;;;5053518;28;20410;-71
2023/08/07 03:04:22;;;;;;;4.82;2.60;;;14.60;99.90;;;;;;5035743;28;20053;-71
2023/08/07 03:06:47;;;;;;;5.72;3.35;;;14.60;99.90;;;;;;5053633;28;20575;-73
2023/08/07 03:09:13;;;;;;;8.27;3.53;;;14.60;99.90;;;;;;5053301;28;20045;-72
2023/08/07 03:11:39;;;;;;;10.13;4.60;;;14.70;99.90;;;;;;5053425;28;20045;-72
2023/08/07 03:14:04;;;;;;;6.93;3.40;;;14.70;99.90;;;;;;5035696;28;20134;-70
2023/08/07 03:16:30;;;;;;;9.57;3.78;;;14.70;99.90;;;;;;5053156;28;20047;-72
2023/08/07 03:18:56;;;;;;;7.00;4.32;;;14.70;99.90;;;;;;5035566;28;20044;-72
2023/08/07 03:21:21;;;;;;;7.40;3.50;;;14.80;99.90;;;;;;5036164;28;20148;-70
2023/08/07 03:23:47;;;;;;;7.55;4.60;;;14.70;99.90;;;;;;5052979;28;20132;-71
2023/08/07 03:26:13;;;;;;;7.38;3.45;;;14.80;99.90;;;;;;5053750;28;20048;-71
2023/08/07 03:28:39;;;;;;;9.40;3.88;;;14.80;99.90;;;;;;5052789;28;20453;-73
2023/08/07 03:31:05;;;;;;;10.13;3.88;;;14.80;99.90;;;;;;5052925;28;20060;-71
2023/08/07 03:33:31;;;;;;;9.13;4.13;;;14.70;99.90;;;;;;5031553;28;20096;-70
2023/08/07 03:35:56;;;;;;;8.02;3.53;;;14.70;99.90;;;;;;5032956;28;20045;-72
2023/08/07 03:38:22;;;;;;;7.35;3.72;;;14.70;99.90;;;;;;5032800;28;20041;-73
2023/08/07 03:40:48;;;;;;;8.38;3.88;;;14.70;99.90;;;;;;5032540;28;20382;-71
2023/08/07 03:43:13;;;;;;;10.23;3.50;;;14.60;99.90;;;;;;5015396;28;20053;-72
2023/08/07 03:45:40;;;;;;;7.28;3.67;;;14.60;99.90;;;;;;5032881;28;20456;-71
2023/08/07 03:48:06;;;;;;;9.48;3.72;;;14.60;99.90;;;;;;5032660;28;20045;-73
2023/08/07 03:50:34;;;;;;;7.32;3.55;;;14.60;99.90;;;;;;5033366;28;20172;-71
2023/08/07 03:53:01;;;;;;;6.15;3.88;;;14.60;99.90;;;;;;5033077;28;20054;-71
2023/08/07 03:55:26;;;;;;;11.40;3.75;;;14.60;99.90;;;;;;5031104;28;20467;-73
2023/08/07 03:57:52;;;;;;;7.93;4.00;;;14.60;99.90;;;;;;5031365;28;20056;-73
2023/08/07 04:00:18;;;;;;;12.13;3.28;;;14.50;99.90;;;;;;5032668;28;20056;-72
2023/08/07 04:02:44;;;;;;;10.48;3.67;;;14.50;99.90;;;;;;5032040;28;20060;-74
2023/08/07 04:05:10;;;;;;;8.27;3.63;;;14.50;99.90;;;;;;5031443;28;20076;-71
2023/08/07 04:07:36;;;;;;;8.55;4.40;;;14.50;99.90;;;;;;5032524;28;20513;-72
2023/08/07 04:10:02;;;;;;;10.73;4.07;;;14.50;99.90;;;;;;5032903;28;20490;-73
2023/08/07 04:12:27;;;;;;;7.47;4.15;;;14.50;99.90;;;;;;5031679;28;20055;-71
2023/08/07 04:14:53;;;;;;;8.80;3.50;;;14.60;99.90;;;;;;5031582;28;20052;-72
2023/08/07 04:17:19;;;;;;;9.50;3.83;;;14.70;99.90;;;;;;5032706;28;20048;-72
2023/08/07 04:19:45;;;;;;;6.65;3.90;;;14.70;99.90;;;;;;5032454;28;20068;-73
2023/08/07 04:22:10;;;;;;;8.15;3.88;;;14.60;99.90;;;;;;5031210;28;20084;-71
2023/08/07 04:24:36;;;;;;;8.45;3.63;;;14.70;99.90;;;;;;5032380;28;20136;-74
2023/08/07 04:27:02;;;;;;;8.10;4.35;;;14.70;99.90;;;;;;5031353;28;20050;-72
2023/08/07 04:29:28;;;;;;;8.15;3.10;;;14.70;99.90;;;;;;5031635;28;20605;-72
2023/08/07 04:31:54;;;;;;;9.50;4.30;;;14.80;99.90;;;;;;5031087;28;20092;-77
2023/08/07 04:34:19;;;;;;;6.18;3.63;;;14.80;99.90;;;;;;5032822;28;20057;-71
2023/08/07 04:36:45;;;;;;;8.32;3.45;;;14.80;99.90;;;;;;5032627;28;20477;-71
2023/08/07 04:39:13;;;;;;;7.13;3.10;;;14.90;99.90;;;;;;5031569;28;20104;-72
2023/08/07 04:41:38;;;;;;;4.57;3.45;;;14.80;99.90;;;;;;5032587;28;20053;-74
2023/08/07 04:44:04;;;;;;;7.07;3.60;;;14.80;99.90;;;;;;5032307;28;20103;-72
2023/08/07 04:46:30;;;;;;;7.15;3.30;;;14.80;99.90;;;;;;5032142;28;20112;-74
2023/08/07 04:48:56;;;;;;;10.60;3.45;;;14.80;99.90;;;;;;5032052;28;20493;-72
2023/08/07 04:51:22;;;;;;;9.48;3.08;;;14.80;99.90;;;;;;5033540;28;20060;-72
2023/08/07 04:53:50;;;;;;;6.82;3.45;;;14.80;99.90;;;;;;5035988;28;20088;-72
2023/08/07 04:56:17;;;;;;;7.15;3.80;;;14.80;99.90;;;;;;5035678;28;20436;-72
2023/08/07 04:58:42;;;;;;;12.65;4.18;;;14.80;99.90;;;;;;5036007;28;20053;-74
2023/08/07 05:01:08;;;;;;;7.40;3.67;;;14.80;99.90;;;;;;5035776;28;20077;-74
2023/08/07 05:03:34;;;;;;;8.25;4.75;;;14.80;99.90;;;;;;5035878;28;20060;-74
2023/08/07 05:06:01;;;;;;;14.85;5.40;;;14.80;99.90;;;;;;5035485;28;20049;-70
2023/08/07 05:08:27;;;;;;;11.02;4.90;;;14.90;99.90;;;;;;5035347;28;20041;-72
2023/08/07 05:10:52;;;;;;;9.18;4.40;;;15.00;99.90;;;;;;5036349;28;20084;-72
2023/08/07 05:13:18;;;;;;;9.32;4.20;;;14.90;99.90;;;;;;5035181;28;20109;-74
2023/08/07 05:15:46;;;;;;;10.27;4.78;;;15.00;99.90;;;;;;5035950;28;20053;-76
2023/08/07 05:18:12;;;;;;;12.95;4.78;;;15.00;99.90;;;;;;5035617;28;20045;-74
2023/08/07 05:20:37;;;;;;;8.73;4.30;;;15.00;99.90;;;;;;5035719;28;20088;-74
2023/08/07 05:23:03;;;;;;;9.13;4.70;;;15.10;99.90;;;;;;5035819;28;20417;-73
2023/08/07 05:25:29;;;;;;;11.68;4.55;;;15.10;99.90;;;;;;5035505;28;20547;-73
2023/08/07 05:27:54;;;;;;;7.68;4.30;;;15.20;99.90;;;;;;5035572;28;20062;-71
2023/08/07 05:30:20;;;;;;;10.07;4.03;;;15.40;99.90;;;;;;5034242;28;20519;-72
2023/08/07 05:32:46;;;;;;;12.93;4.97;;;15.30;99.90;;;;;;5047981;28;20405;-74
2023/08/07 05:35:11;;;;;;;10.00;4.32;;;15.30;99.90;;;;;;5020832;28;20388;-73
2023/08/07 05:37:37;;;;;;;10.75;4.07;;;15.40;99.90;;;;;;5038221;28;20092;-73
2023/08/07 05:40:04;;;;;;;10.15;4.32;;;15.40;99.90;;;;;;5055173;28;20045;-72
2023/08/07 05:42:29;;;;;;;10.50;3.78;;;15.40;99.90;;;;;;5055518;28;20049;-74
2023/08/07 05:44:55;;;;;;;11.50;4.85;;;15.40;99.90;;;;;;5055365;28;20159;-72
2023/08/07 05:47:21;;;;;;;8.68;4.18;;;15.50;99.90;;;;;;5055321;28;20052;-72
2023/08/07 05:49:46;;;;;;;12.93;5.30;;;15.50;99.90;;;;;;5055007;28;20037;-72
2023/08/07 05:52:12;;;;;;;9.25;4.78;;;15.60;99.90;;;;;;5037612;28;20488;-73
2023/08/07 05:54:38;;;;;;;9.93;4.47;;;15.60;99.90;;;;;;5054583;28;20118;-72
2023/08/07 05:57:03;;;;;;;8.52;4.53;;;15.60;99.90;;;;;;5037522;28;20049;-74
2023/08/07 05:59:29;;;;;;;10.68;4.65;;;15.60;99.90;;;;;;5054438;28;20480;-74
2023/08/07 06:01:55;;;;;;;9.05;4.38;;;15.60;99.90;;;;;;5054426;28;20079;-71
2023/08/07 06:04:21;;;;;;;6.40;3.67;;;15.70;99.90;;;;;;5054448;28;20059;-72
2023/08/07 06:06:47;;;;;;;8.65;4.18;;;15.80;99.90;;;;;;5054457;28;20045;-72
2023/08/07 06:09:15;;;;;;;14.30;5.47;;;15.80;99.90;;;;;;5054317;28;20041;-71
2023/08/07 06:11:41;;;;;;;9.30;4.25;;;15.90;99.90;;;;;;5054479;28;20049;-71
2023/08/07 06:14:07;;;;;;;12.25;4.50;;;15.80;99.90;;;;;;5054700;28;20049;-71
2023/08/07 06:16:33;;;;;;;10.77;4.15;;;15.90;99.90;;;;;;5020207;28;20044;-76
2023/08/07 06:18:58;;;;;;;10.32;4.53;;;16.00;99.90;;;;;;5036309;28;20091;-72
2023/08/07 06:21:24;;;;;;;12.43;5.03;;;16.00;99.90;;;;;;5054260;28;20045;-73
2023/08/07 06:23:50;;;;;;;14.73;4.82;;;16.10;99.90;;;;;;5036626;28;20045;-73
2023/08/07 06:26:16;;;;;;;9.75;4.80;;;16.10;99.90;;;;;;5054573;28;20044;-72
2023/08/07 06:28:42;;;;;;;12.88;4.93;;;16.00;99.90;;;;;;5036497;28;20044;-72
2023/08/07 06:31:09;;;;;;;11.38;4.38;;;16.00;99.90;;;;;;5053963;28;20048;-72
2023/08/07 06:33:36;;;;;;;8.68;3.53;;;16.00;99.90;;;;;;5036002;28;20053;-71
2023/08/07 06:36:03;;;;;;;8.95;4.05;;;15.90;99.90;;;;;;5053625;28;20426;-72
2023/08/07 06:38:29;;;;;;;9.00;3.90;;;15.90;99.90;;;;;;5053919;28;20060;-72
2023/08/07 06:40:55;;;;;;;10.40;4.28;;;15.90;99.90;;;;;;5054021;28;20053;-71
2023/08/07 06:43:21;;;;;;;7.45;3.75;;;15.80;99.90;;;;;;5035436;28;20517;-74
2023/08/07 06:45:49;;;;;;;11.07;4.05;;;15.60;99.90;;;;;;5053300;28;20055;-71
2023/08/07 06:48:15;;;;;;;9.32;4.10;;;16.00;99.90;;;;;;5053237;28;20045;-72
2023/08/07 06:50:40;;;;;;;9.45;3.72;;;16.20;99.90;;;;;;5036130;28;20041;-72
2023/08/07 06:53:06;;;;;;;7.82;3.95;;;16.40;99.90;;;;;;5053547;28;20454;-73
2023/08/07 06:55:33;;;;;;;6.97;5.05;;;17.30;99.90;;;;;;5054006;28;20053;-71
2023/08/07 06:57:59;;;;;;;9.32;3.88;;;17.90;99.90;;;;;;5053546;28;20056;-71
2023/08/07 07:00:25;;;;;;;7.20;3.15;;;17.50;99.90;;;;;;5035765;28;20497;-71
2023/08/07 07:02:51;;;;;;;6.10;2.92;;;17.10;99.90;;;;;;5053029;28;20045;-72
2023/08/07 07:05:17;;;;;;;7.55;2.88;;;16.70;99.90;;;;;;5035689;28;20124;-71
2023/08/07 07:07:42;;;;;;;6.53;2.95;;;16.50;99.90;;;;;;5053126;28;20445;-71
2023/08/07 07:10:08;;;;;;;7.22;2.80;;;16.50;99.90;;;;;;5053408;28;20081;-75
2023/08/07 07:12:34;;;;;;;7.60;3.20;;;16.40;99.90;;;;;;5052815;28;20056;-71
2023/08/07 07:15:00;;;;;;;8.15;3.58;;;16.50;99.90;;;;;;5035065;28;20485;-71
2023/08/07 07:17:26;;;;;;;8.10;3.35;;;16.90;99.90;;;;;;5053350;28;20136;-72
2023/08/07 07:19:51;;;;;;;7.20;3.15;;;17.10;99.90;;;;;;5019251;28;20040;-71
2023/08/07 07:22:17;;;;;;;6.43;3.55;;;16.90;99.90;;;;;;5052877;28;20064;-72
2023/08/07 07:24:43;;;;;;;5.78;2.42;;;16.80;99.90;;;;;;5052958;28;20108;-72
2023/08/07 07:27:08;;;;;;;8.73;3.67;;;16.30;99.90;;;;;;5052829;28;20060;-73
2023/08/07 07:29:34;;;;;;;5.15;3.10;;;16.00;99.90;;;;;;5035214;28;20055;-74
2023/08/07 07:32:00;;;;;;;7.25;3.03;;;15.60;99.90;;;;;;5052593;28;20532;-72
2023/08/07 07:34:25;;;;;;;8.60;3.28;;;15.60;99.90;;;;;;5033257;28;20481;-72
2023/08/07 07:36:53;;;;;;;6.72;2.70;;;15.70;99.90;;;;;;5033245;28;20133;-74
2023/08/07 07:39:19;;;;;;;5.97;2.63;;;15.80;99.90;;;;;;5032387;28;20057;-72
2023/08/07 07:41:45;;;;;;;10.23;3.10;;;15.90;99.90;;;;;;5032626;28;20102;-74
2023/08/07 07:44:10;;;;;;;6.28;2.83;;;15.90;99.90;;;;;;5031541;28;20081;-71
2023/08/07 07:46:36;;;;;;;6.22;3.08;;;15.60;99.90;;;;;;5032800;28;20451;-76
2023/08/07 07:49:03;;;;;;;7.43;3.25;;;15.50;99.90;;;;;;5015044;28;20046;-73
2023/08/07 07:51:29;;;;;;;6.38;3.50;;;15.40;99.90;;;;;;5032662;28;20049;-72
2023/08/07 07:53:54;;;;;;;7.22;3.63;;;15.50;99.90;;;;;;5032615;28;20050;-71
2023/08/07 07:56:20;;;;;;;6.22;3.00;;;15.60;99.90;;;;;;5031444;28;20465;-73
2023/08/07 07:58:46;;;;;;;8.10;4.00;;;15.80;99.90;;;;;;5032281;28;20042;-74
2023/08/07 08:01:11;;;;;;;9.05;4.35;;;15.80;99.90;;;;;;5031429;28;20057;-75
2023/08/07 08:03:37;;;;;;;7.60;3.10;;;16.10;99.90;;;;;;5032219;28;20046;-74
2023/08/07 08:06:03;;;;;;;6.82;3.75;;;16.40;99.90;;;;;;5032206;28;20037;-74
2023/08/07 08:08:29;;;;;;;8.50;4.13;;;16.50;99.90;;;;;;5032293;28;20494;-72
2023/08/07 08:10:54;;;;;;;6.53;4.47;;;16.60;99.90;;;;;;5015417;28;20186;-74
2023/08/07 08:13:20;;;;;;;9.32;4.18;;;16.70;99.90;;;;;;5031794;28;20049;-72
2023/08/07 08:15:46;;;;;;;7.22;3.30;;;16.60;99.90;;;;;;5031733;28;20052;-72
2023/08/07 08:18:12;;;;;;;6.95;3.85;;;16.30;99.90;;;;;;5032270;28;20049;-74
2023/08/07 08:20:38;;;;;;;11.15;4.03;;;16.10;99.90;;;;;;5031452;28;20120;-72
2023/08/07 08:23:05;;;;;;;7.75;3.45;;;15.80;99.90;;;;;;5032174;28;20051;-70
2023/08/07 08:25:32;;;;;;;5.53;3.97;;;15.70;99.90;;;;;;5033488;28;20045;-71
2023/08/07 08:27:59;;;;;;;6.55;3.60;;;15.70;99.90;;;;;;5036096;28;20500;-76
2023/08/07 08:30:25;;;;;;;5.13;3.03;;;15.70;99.90;;;;;;5036244;28;20133;-71
2023/08/07 08:32:50;;;;;;;6.15;3.45;;;15.80;99.90;;;;;;5043033;28;20088;-73
2023/08/07 08:35:16;;;;;;;5.18;3.35;;;15.70;99.90;;;;;;5056091;28;20424;-74
2023/08/07 08:37:42;;;;;;;7.25;3.95;;;15.70;99.90;;;;;;5038277;28;20107;-74
2023/08/07 08:40:11;;;;;;;9.00;3.70;;;15.70;99.90;;;;;;5038584;28;20041;-72
2023/08/07 08:42:40;;;;;;;7.95;4.03;;;16.00;99.90;;;;;;5056246;28;20448;-72
2023/08/07 08:45:10;;;;;;;7.40;4.13;;;16.70;99.90;;;;;;5056453;28;20045;-73
2023/08/07 08:47:37;;;;;;;8.48;3.70;;;17.50;99.90;;;;;;5056177;28;20103;-72
2023/08/07 08:50:06;;;;;;;10.00;3.63;;;18.20;99.90;;;;;;5038356;28;20040;-73
2023/08/07 08:52:33;;;;;;;8.70;3.25;;;18.90;99.90;;;;;;5056522;28;20048;-72
2023/08/07 08:54:59;;;;;;;5.38;3.10;;;19.00;99.90;;;;;;5056001;28;20124;-73
2023/08/07 08:57:26;;;;;;;6.93;3.40;;;19.30;99.90;;;;;;5055987;28;20053;-71
2023/08/07 08:59:52;;;;;;;8.48;3.28;;;20.20;99.90;;;;;;5056316;28;20085;-73
2023/08/07 09:02:18;;;;;;;5.90;3.33;;;21.00;99.90;;;;;;5055866;28;20052;-72
2023/08/07 09:04:44;;;;;;;5.78;3.63;;;21.40;99.90;;;;;;5038405;28;20053;-72
2023/08/07 09:07:19;;;;;;;6.30;2.88;;;21.80;99.90;;;;;;5056056;28;20049;-71
2023/08/07 09:09:46;;;;;;;9.93;4.10;;;21.10;99.90;;;;;;5055971;28;20390;-75
2023/08/07 09:12:23;;;;;;;7.25;2.85;;;20.50;99.90;;;;;;5055626;28;20051;-72
2023/08/07 09:14:54;;;;;;;7.25;2.75;;;20.50;99.90;;;;;;5038762;28;20041;-72
2023/08/07 09:17:24;;;;;;;4.72;2.55;;;20.70;99.90;;;;;;5055560;28;20045;-76
2023/08/07 09:19:51;;;;;;;9.55;2.97;;;21.20;99.80;;;;;;5055592;28;20060;-72
2023/08/07 09:22:18;;;;;;;6.53;2.90;;;21.40;99.90;;;;;;5055967;28;20127;-72
2023/08/07 09:24:44;;;;;;;5.90;2.45;;;21.40;99.90;;;;;;5055499;28;20056;-73
2023/08/07 09:27:09;;;;;;;6.88;2.47;;;21.20;99.90;;;;;;5038442;28;20047;-71
2023/08/07 09:29:35;;;;;;;7.85;2.88;;;21.00;98.60;;;;;;5055958;28;20460;-72
2023/08/07 09:32:13;;;;;;;4.25;2.13;;;21.60;99.90;;;;;;5055234;28;20446;-72
2023/08/07 09:34:40;;;;;;;7.70;2.47;;;21.90;96.10;;;;;;5055048;28;20065;-72
2023/08/07 09:37:08;;;;;;;5.30;2.28;;;21.60;96.30;;;;;;5054619;28;20057;-75
2023/08/07 09:39:35;;;;;;;4.82;2.25;;;21.30;96.50;;;;;;5055375;28;20135;-73
2023/08/07 09:42:02;;;;;;;6.35;1.90;;;21.40;94.70;;;;;;5055535;28;20052;-72
2023/08/07 09:44:38;;;;;;;5.25;2.22;;;21.80;94.90;;;;;;5055076;28;20497;-71
2023/08/07 09:47:16;;;;;;;5.15;2.42;;;21.80;96.10;;;;;;5054974;28;20044;-75
2023/08/07 09:49:43;;;;;;;5.40;2.20;;;22.20;93.20;;;;;;5054992;28;20112;-72
2023/08/07 09:52:11;;;;;;;7.25;2.17;;;22.10;95.70;;;;;;5037028;28;20052;-74
2023/08/07 09:54:37;;;;;;;5.18;2.22;;;22.10;94.70;;;;;;5055415;28;20044;-72
2023/08/07 09:57:04;;;;;;;7.22;2.88;;;21.40;94.50;;;;;;5055252;28;20154;-74
2023/08/07 09:59:31;;;;;;;9.68;2.28;;;20.70;95.60;;;;;;5055465;28;20064;-72
2023/08/07 10:01:57;;;;;;;7.05;2.47;;;20.90;97.30;;;;;;5054678;28;20047;-72
2023/08/07 10:04:23;;;;;;;10.25;2.53;;;21.50;97.60;;;;;;5037267;28;20053;-73
2023/08/07 10:06:49;;;;;;;6.95;2.60;;;21.60;96.50;;;;;;5020742;28;20055;-71
2023/08/07 10:09:15;;;;;;;5.95;2.50;;;21.30;94.80;;;;;;5054464;28;20048;-72
2023/08/07 10:11:42;;;;;;;7.50;2.67;;;20.60;94.50;;;;;;5054821;28;20053;-71
2023/08/07 10:14:09;;;;;;;6.38;2.40;;;20.00;95.60;;;;;;5054722;28;20048;-72
2023/08/07 10:16:39;;;;;;;4.32;2.22;;;19.70;95.80;;;;;;5054739;28;20053;-73
2023/08/07 10:19:09;;;;;;;6.05;2.50;;;19.60;96.30;;;;;;5054418;28;20532;-72
2023/08/07 10:21:45;;;;;;;4.43;2.20;;;19.50;96.50;;;;;;5054817;28;20044;-74
2023/08/07 10:24:12;;;;;;;5.82;2.55;;;19.40;95.80;;;;;;5037086;28;20118;-71
2023/08/07 10:26:45;;;;;;;8.18;2.90;;;19.10;97.30;;;;;;5054559;28;20055;-72
2023/08/07 10:29:15;;;;;;;5.57;2.90;;;19.10;97.20;;;;;;5054240;28;20060;-71
2023/08/07 10:31:43;;;;;;;6.72;3.00;;;18.80;96.90;;;;;;5054196;28;20053;-71
2023/08/07 10:34:09;;;;;;;6.47;3.42;;;18.70;97.50;;;;;;5054247;28;20497;-72
2023/08/07 10:36:36;;;;;;;6.22;2.78;;;18.90;98.80;;;;;;5054061;28;20061;-72
2023/08/07 10:39:11;;;;;;;5.55;2.88;;;19.00;98.30;;;;;;5054059;28;20087;-72
2023/08/07 10:41:44;;;;;;;6.30;3.28;;;19.00;97.90;;;;;;5054463;28;20083;-73
2023/08/07 10:44:19;;;;;;;8.63;3.00;;;18.80;98.20;;;;;;5036400;28;20049;-71
2023/08/07 10:47:03;;;;;;;9.43;3.05;;;18.70;98.50;;;;;;5054279;28;20049;-74
2023/08/07 10:49:38;;;;;;;9.70;3.60;;;18.80;99.10;;;;;;5053217;28;20045;-73
2023/08/07 10:52:14;;;;;;;4.80;2.72;;;18.80;99.00;;;;;;5053597;28;20509;-73
2023/08/07 10:54:49;;;;;;;7.05;2.83;;;18.70;98.30;;;;;;5037242;28;20173;-72
2023/08/07 10:57:16;;;;;;;6.18;2.90;;;19.20;98.70;;;;;;5036040;28;20064;-73
2023/08/07 11:00:06;;;;;;;6.07;3.15;;;19.30;98.50;;;;;;5053672;28;20033;-76
2023/08/07 11:02:36;;;;;;;5.55;2.70;;;19.50;97.60;;;;;;5043276;28;20053;-73
2023/08/07 11:05:03;;;;;;;4.90;2.65;;;19.10;97.20;;;;;;5036170;28;20466;-72
2023/08/07 11:07:31;;;;;;;6.85;3.05;;;18.90;97.90;;;;;;5036527;28;20111;-73
2023/08/07 11:09:58;;;;;;;11.25;3.40;;;18.80;98.80;;;;;;5053510;28;20351;-73
2023/08/07 11:12:27;;;;;;;3.75;2.15;;;18.80;97.70;;;;;;5053433;28;20060;-74
2023/08/07 11:14:56;;;;;;;5.05;2.08;;;18.90;96.50;;;;;;5035403;28;20045;-73
2023/08/07 11:17:25;;;;;;;4.25;1.90;;;19.10;96.20;;;;;;5053193;28;20049;-72
2023/08/07 11:19:51;;;;;;;3.58;2.20;;;19.00;95.20;;;;;;5053248;28;20109;-72
2023/08/07 11:22:16;;;;;;;4.18;2.20;;;18.90;95.40;;;;;;5053195;28;20052;-75
2023/08/07 11:24:42;;;;;;;6.68;2.10;;;18.90;96.10;;;;;;5053195;28;20046;-72
2023/08/07 11:27:08;;;;;;;4.78;2.30;;;18.90;96.80;;;;;;5035717;28;20049;-73
2023/08/07 11:29:34;;;;;;;6.32;2.33;;;18.90;96.70;;;;;;5053494;28;20040;-72
2023/08/07 11:32:00;;;;;;;7.38;2.83;;;18.90;95.90;;;;;;5052734;28;20037;-71
2023/08/07 11:34:26;;;;;;;4.95;2.00;;;19.00;96.80;;;;;;5052787;28;20136;-71
2023/08/07 11:36:54;;;;;;;7.43;2.30;;;18.90;97.30;;;;;;5035652;28;20358;-72
2023/08/07 11:39:20;;;;;;;8.63;2.30;;;18.70;97.50;;;;;;5053277;28;20049;-71
2023/08/07 11:41:46;;;;;;;3.95;2.15;;;18.50;97.90;;;;;;5035914;28;20052;-71
2023/08/07 11:44:12;;;;;;;4.50;2.53;;;18.50;97.70;;;;;;5052990;28;20371;-72
2023/08/07 11:46:38;;;;;;;6.78;3.03;;;18.50;98.50;;;;;;5034888;28;20094;-71
2023/08/07 11:49:04;;;;;;;4.57;2.40;;;18.50;98.60;;;;;;5052413;28;20422;-73
2023/08/07 11:51:30;;;;;;;4.45;2.47;;;18.60;99.10;;;;;;5052764;28;20568;-71
2023/08/07 11:53:58;;;;;;;7.03;3.40;;;18.60;99.60;;;;;;5053450;28;20080;-71
2023/08/07 11:56:24;;;;;;;5.90;2.78;;;18.70;99.60;;;;;;5035205;28;20059;-72
2023/08/07 11:58:52;;;;;;;11.88;3.67;;;18.70;99.80;;;;;;5052432;28;20037;-71
2023/08/07 12:01:21;;;;;;;3.72;2.45;;;18.60;99.80;;;;;;5053092;28;20358;-70
2023/08/07 12:04:08;;;;;;;7.72;3.17;;;18.30;99.90;;;;;;5052535;28;20128;-71
2023/08/07 12:06:35;;;;;;;3.85;2.35;;;17.90;99.90;;;;;;5052558;28;20043;-71
2023/08/07 12:09:02;;;;;;;4.50;2.28;;;17.50;99.90;;;;;;5052478;28;20037;-71
2023/08/07 12:11:30;;;;;;;8.55;2.38;;;17.30;99.90;;;;;;5034933;28;20127;-71
2023/08/07 12:13:56;;;;;;;6.50;2.63;;;16.90;99.90;;;;;;5052461;28;20049;-71
2023/08/07 12:16:21;;;;;;;3.88;2.22;;;16.80;99.90;;;;;;5034820;28;20473;-75
2023/08/07 12:18:49;;;;;;;3.72;2.10;;;16.80;99.90;;;;;;5053170;28;20045;-72
2023/08/07 12:21:17;;;;;;;2.78;2.00;;;16.80;99.90;;;;;;5034609;28;20049;-74
2023/08/07 12:23:44;;;;;;;4.75;2.60;;;16.90;99.90;;;;;;5052109;28;20424;-72
2023/08/07 12:26:10;;;;;;;4.13;2.42;;;16.90;99.90;;;;;;5052485;28;20044;-74
2023/08/07 12:28:36;;;;;;;3.83;2.55;;;16.80;99.90;;;;;;5052868;28;20365;-72
2023/08/07 12:31:02;;;;;;;5.68;2.50;;;16.50;99.90;;;;;;5052373;28;20040;-71
2023/08/07 12:33:31;;;;;;;4.75;2.10;;;16.20;99.90;;;;;;5052038;28;20056;-71
2023/08/07 12:35:58;;;;;;;4.95;2.08;;;15.80;99.90;;;;;;5051961;28;20495;-73
2023/08/07 12:38:23;;;;;;;5.47;2.33;;;15.60;99.90;;;;;;5052206;28;20048;-72
2023/08/07 12:40:50;;;;;;;3.30;2.03;;;15.50;99.90;;;;;;5052837;28;20170;-72
2023/08/07 12:43:15;;;;;;;4.60;2.47;;;15.50;99.90;;;;;;5052265;28;20053;-71